Time;durP1;ratioP1;P1;durP2;ratioP2;P2;SDS_P1;SDS_P2;PMS_P1;PMS_P2;Temp;Humidity;BMP_temperature;BMP_pressure;BME280_temperature;BME280_humidity;BME280_pressure;Samples;Min_cycle;Max_cycle;Signal;HPM_P1;HPM_P2
2023/05/02 00:01:08;;;;;;;3.35;2.97;;;;;;;15.50;45.92;95221.94;5035456;28;20205;-67
2023/05/02 00:03:34;;;;;;;3.55;3.25;;;;;;;15.28;46.68;95219.09;5025058;28;20198;-68
2023/05/02 00:06:00;;;;;;;3.50;3.20;;;;;;;15.42;46.45;95220.16;5020380;28;20308;-67
2023/05/02 00:08:25;;;;;;;3.50;3.15;;;;;;;15.46;46.57;95233.91;5030287;28;20217;-68
2023/05/02 00:10:50;;;;;;;4.97;3.30;;;;;;;15.23;46.78;95218.81;5029295;28;20252;-68
2023/05/02 00:13:16;;;;;;;4.18;3.03;;;;;;;15.32;46.59;95228.38;5034698;28;20221;-68
2023/05/02 00:15:41;;;;;;;3.83;3.53;;;;;;;15.27;46.70;95224.59;5035545;28;20189;-68
2023/05/02 00:18:07;;;;;;;3.50;3.20;;;;;;;15.19;47.00;95228.13;5023471;28;20222;-68
2023/05/02 00:20:32;;;;;;;3.85;3.47;;;;;;;14.98;47.42;95224.25;5028296;28;20333;-68
2023/05/02 00:22:58;;;;;;;3.63;3.20;;;;;;;15.19;46.97;95231.59;5041863;28;20221;-68
2023/05/02 00:25:23;;;;;;;3.67;3.38;;;;;;;15.21;47.00;95226.13;5034683;28;20747;-68
2023/05/02 00:27:49;;;;;;;3.92;3.22;;;;;;;15.14;47.28;95235.75;5037076;28;20384;-67
2023/05/02 00:30:15;;;;;;;3.92;3.63;;;;;;;14.95;47.81;95227.25;5030397;28;20539;-67
2023/05/02 00:32:41;;;;;;;4.30;3.58;;;;;;;15.05;47.66;95232.34;5027175;28;20224;-67
2023/05/02 00:35:07;;;;;;;6.00;3.42;;;;;;;14.95;47.94;95232.56;5025373;28;20259;-68
2023/05/02 00:37:32;;;;;;;4.75;3.63;;;;;;;14.96;48.03;95243.97;5031560;28;20229;-68
2023/05/02 00:39:58;;;;;;;3.83;3.33;;;;;;;14.89;47.95;95237.69;5028612;28;20182;-70
2023/05/02 00:42:23;;;;;;;6.25;3.67;;;;;;;14.95;47.98;95243.13;5030993;28;20289;-68
2023/05/02 00:44:49;;;;;;;3.97;3.40;;;;;;;15.02;48.07;95248.56;5014121;28;20213;-68
2023/05/02 00:47:14;;;;;;;3.40;3.10;;;;;;;14.86;48.87;95260.06;5026095;28;20221;-67
2023/05/02 00:49:41;;;;;;;4.05;3.65;;;;;;;14.74;49.31;95256.16;5006059;28;20218;-68
2023/05/02 00:52:07;;;;;;;4.00;3.30;;;;;;;14.74;48.98;95262.25;5032533;28;20269;-67
2023/05/02 00:54:33;;;;;;;4.10;3.67;;;;;;;14.72;49.24;95261.59;5035416;28;20205;-68
2023/05/02 00:56:58;;;;;;;4.80;3.80;;;;;;;14.68;49.25;95265.59;5032652;28;20218;-67
2023/05/02 00:59:25;;;;;;;4.40;4.00;;;;;;;14.81;49.08;95261.56;5033437;28;20213;-68
2023/05/02 01:01:54;;;;;;;4.43;3.95;;;;;;;14.82;48.96;95247.34;5033366;28;20237;-68
2023/05/02 01:04:39;;;;;;;3.92;3.53;;;;;;;14.79;49.38;95253.81;5006154;28;20250;-68
2023/05/02 01:07:36;;;;;;;3.70;3.40;;;;;;;14.89;49.10;95259.72;4999080;28;20195;-67
2023/05/02 01:10:37;;;;;;;3.83;3.53;;;;;;;14.87;48.96;95245.81;4915090;29;20238;-67
2023/05/02 01:13:11;;;;;;;3.70;3.40;;;;;;;14.89;49.26;95253.56;4917147;29;20212;-67
2023/05/02 01:15:40;;;;;;;5.00;4.07;;;;;;;14.79;49.44;95259.09;4917825;29;20220;-67
2023/05/02 01:18:10;;;;;;;3.83;3.50;;;;;;;14.79;49.60;95259.09;4934899;29;20328;-67
2023/05/02 01:20:40;;;;;;;6.22;3.35;;;;;;;14.81;49.43;95245.69;4917646;29;20297;-67
2023/05/02 01:23:16;;;;;;;3.80;3.50;;;;;;;14.77;49.53;95245.22;4910902;29;20293;-67
2023/05/02 01:25:59;;;;;;;3.60;3.30;;;;;;;14.69;49.85;95243.41;4916041;29;20216;-67
2023/05/02 01:28:43;;;;;;;3.95;3.40;;;;;;;14.68;50.02;95240.97;4915748;29;20236;-67
2023/05/02 01:31:10;;;;;;;4.65;3.50;;;;;;;14.71;50.06;95245.91;4909984;29;20203;-68
2023/05/02 01:33:38;;;;;;;3.95;3.65;;;;;;;14.65;50.42;95251.84;4928327;29;20197;-67
2023/05/02 01:36:06;;;;;;;4.63;3.60;;;;;;;14.68;50.15;95255.00;4929677;29;20226;-67
2023/05/02 01:38:33;;;;;;;4.00;3.70;;;;;;;14.56;50.29;95253.72;4901740;29;20252;-68
2023/05/02 01:41:04;;;;;;;5.68;3.85;;;;;;;14.54;50.55;95251.25;4931854;29;20665;-67
2023/05/02 01:43:33;;;;;;;4.25;3.92;;;;;;;14.52;50.58;95255.03;4929447;29;20317;-68
2023/05/02 01:46:01;;;;;;;3.95;3.63;;;;;;;14.46;50.74;95259.19;4919734;28;20231;-68
2023/05/02 01:48:27;;;;;;;4.05;3.60;;;;;;;14.50;50.66;95257.03;4986039;28;20187;-68
2023/05/02 01:50:56;;;;;;;4.85;3.92;;;;;;;14.46;50.91;95263.63;5006906;28;20223;-68
2023/05/02 01:53:24;;;;;;;5.03;4.15;;;;;;;14.44;50.91;95265.63;5012803;28;20223;-68
2023/05/02 01:55:51;;;;;;;3.88;3.58;;;;;;;14.38;51.33;95261.84;5014215;28;20356;-68
2023/05/02 01:58:19;;;;;;;3.83;3.50;;;;;;;14.38;51.11;95256.56;5011593;28;20234;-68
2023/05/02 02:00:45;;;;;;;5.00;3.85;;;;;;;14.36;51.23;95247.97;5015470;28;20229;-67
2023/05/02 02:03:12;;;;;;;4.00;3.60;;;;;;;14.36;51.42;95247.97;5023614;28;20237;-68
2023/05/02 02:05:40;;;;;;;3.95;3.65;;;;;;;14.38;51.31;95245.97;5040302;28;20218;-67
2023/05/02 02:08:07;;;;;;;4.40;4.00;;;;;;;14.39;51.35;95242.34;5020951;28;20230;-68
2023/05/02 02:10:39;;;;;;;4.22;3.85;;;;;;;14.29;51.57;95253.09;5026131;28;20252;-68
2023/05/02 02:13:24;;;;;;;4.10;3.75;;;;;;;14.09;52.12;95257.13;5027873;28;20237;-68
2023/05/02 02:15:56;;;;;;;5.18;4.25;;;;;;;14.04;52.00;95254.97;5032134;28;20186;-68
2023/05/02 02:18:25;;;;;;;4.65;4.18;;;;;;;13.97;52.29;95246.03;5033275;28;20293;-67
2023/05/02 02:20:53;;;;;;;3.92;3.63;;;;;;;14.05;52.17;95253.97;5033351;28;20213;-67
2023/05/02 02:23:20;;;;;;;5.10;4.43;;;;;;;13.78;52.79;95246.38;5027559;28;20213;-67
2023/05/02 02:25:49;;;;;;;4.25;3.95;;;;;;;13.84;52.88;95246.53;5032088;28;20301;-68
2023/05/02 02:28:15;;;;;;;4.43;4.07;;;;;;;13.85;52.72;95250.03;5021494;28;20248;-68
2023/05/02 02:30:40;;;;;;;4.07;3.72;;;;;;;13.76;53.01;95245.72;5032541;28;20178;-68
2023/05/02 02:33:05;;;;;;;4.25;3.85;;;;;;;13.64;53.07;95238.13;5031571;28;20225;-67
2023/05/02 02:35:39;;;;;;;4.13;3.75;;;;;;;13.67;53.18;95256.28;5035969;28;20217;-68
2023/05/02 02:38:26;;;;;;;4.30;3.90;;;;;;;13.80;52.71;95257.63;5023276;28;20267;-68
2023/05/02 02:40:56;;;;;;;4.07;3.78;;;;;;;13.80;52.39;95250.53;5024847;28;20464;-68
2023/05/02 02:43:33;;;;;;;4.72;4.43;;;;;;;13.76;52.78;95256.28;5024852;28;20222;-67
2023/05/02 02:46:15;;;;;;;4.82;4.32;;;;;;;13.66;52.91;95262.59;5031198;28;20236;-68
2023/05/02 02:48:55;;;;;;;4.80;4.40;;;;;;;13.73;52.92;95259.28;5024820;28;20237;-68
2023/05/02 02:52:04;;;;;;;4.45;4.05;;;;;;;13.72;52.93;95270.84;5028617;28;20219;-68
2023/05/02 02:54:58;;;;;;;4.53;4.18;;;;;;;13.65;53.32;95258.28;5029331;28;20216;-68
2023/05/02 02:57:38;;;;;;;4.90;4.47;;;;;;;13.75;52.91;95270.50;5024713;28;20225;-67
2023/05/02 03:00:19;;;;;;;5.32;4.93;;;;;;;13.79;52.79;95266.53;5025958;28;20221;-67
2023/05/02 03:02:47;;;;;;;4.93;4.47;;;;;;;13.75;52.74;95266.03;5031930;28;20229;-67
2023/05/02 03:05:14;;;;;;;4.53;4.22;;;;;;;13.66;53.01;95267.06;5032953;28;20241;-67
2023/05/02 03:07:39;;;;;;;5.15;4.30;;;;;;;13.63;53.23;95262.91;5041395;28;20224;-67
2023/05/02 03:10:06;;;;;;;4.93;4.60;;;;;;;13.60;53.53;95275.59;5030734;28;20182;-67
2023/05/02 03:12:31;;;;;;;5.15;4.50;;;;;;;13.54;53.63;95274.44;5035038;28;20245;-67
2023/05/02 03:15:22;;;;;;;5.97;4.60;;;;;;;13.54;53.50;95279.75;5029373;28;20300;-67
2023/05/02 03:17:47;;;;;;;4.60;4.30;;;;;;;13.64;53.29;95290.16;5021223;28;20221;-67
2023/05/02 03:20:13;;;;;;;5.20;4.80;;;;;;;13.64;53.38;95287.53;5032950;28;20232;-68
2023/05/02 03:22:38;;;;;;;5.00;4.35;;;;;;;13.75;53.04;95286.38;5029621;28;20217;-68
2023/05/02 03:25:04;;;;;;;5.40;4.90;;;;;;;13.56;53.50;95290.16;5023549;28;20186;-68
2023/05/02 03:27:30;;;;;;;4.57;4.18;;;;;;;13.68;53.35;95292.31;5030827;28;20221;-67
2023/05/02 03:29:56;;;;;;;5.35;4.65;;;;;;;13.59;53.25;95293.28;5035161;28;20243;-67
2023/05/02 03:32:21;;;;;;;4.95;4.47;;;;;;;13.61;53.37;95291.31;5029644;28;20260;-68
2023/05/02 03:34:47;;;;;;;5.03;4.63;;;;;;;13.65;53.13;95297.09;5034321;28;20230;-67
2023/05/02 03:37:12;;;;;;;5.35;4.85;;;;;;;13.58;53.54;95293.44;5029371;28;20281;-67
2023/05/02 03:39:38;;;;;;;5.10;4.70;;;;;;;13.66;53.14;95294.28;5030186;28;20178;-68
2023/05/02 03:42:04;;;;;;;5.72;5.20;;;;;;;13.53;53.45;95288.66;5033950;28;20233;-68
2023/05/02 03:44:29;;;;;;;5.60;5.03;;;;;;;13.49;53.70;95294.44;5026687;28;20233;-68
2023/05/02 03:46:55;;;;;;;5.72;5.20;;;;;;;13.56;53.40;95287.50;5026786;28;20339;-69
2023/05/02 03:49:23;;;;;;;5.70;5.20;;;;;;;13.65;53.49;95303.19;5033807;28;20221;-71
2023/05/02 03:51:48;;;;;;;5.20;4.80;;;;;;;13.65;53.32;95297.91;5031029;28;20225;-71
2023/05/02 03:54:14;;;;;;;5.20;4.80;;;;;;;13.61;53.32;95301.88;5031672;28;20222;-70
2023/05/02 03:56:39;;;;;;;5.68;5.28;;;;;;;13.46;53.91;95300.84;5026898;28;20225;-68
2023/05/02 03:59:05;;;;;;;5.75;4.68;;;;;;;13.53;53.58;95291.31;5035761;28;20229;-69
2023/05/02 04:01:30;;;;;;;5.47;4.97;;;;;;;13.68;53.15;95297.59;5026859;28;20237;-69
2023/05/02 04:03:56;;;;;;;5.63;4.70;;;;;;;13.69;53.13;95301.06;5031269;28;20190;-71
2023/05/02 04:06:21;;;;;;;5.22;4.75;;;;;;;13.78;53.05;95296.59;5025362;28;20300;-70
2023/05/02 04:08:47;;;;;;;4.72;4.32;;;;;;;13.78;52.90;95297.44;5031408;28;20214;-69
2023/05/02 04:11:13;;;;;;;5.25;4.55;;;;;;;13.77;52.77;95300.25;5027601;28;20229;-71
2023/05/02 04:13:38;;;;;;;5.00;4.50;;;;;;;13.85;52.65;95302.91;5020998;28;20222;-71
2023/05/02 04:16:04;;;;;;;5.57;5.07;;;;;;;13.82;52.61;95297.91;5028428;28;20185;-72
2023/05/02 04:18:30;;;;;;;15.30;5.30;;;;;;;13.81;52.55;95293.63;5034559;28;20983;-69
2023/05/02 04:20:55;;;;;;;5.70;4.68;;;;;;;13.70;52.51;95291.31;5031258;28;20225;-71
2023/05/02 04:23:21;;;;;;;5.35;4.55;;;;;;;13.57;53.46;95310.28;5036052;28;20275;-69
2023/05/02 04:25:51;;;;;;;5.65;5.13;;;;;;;13.62;53.37;95298.25;5026846;28;20236;-71
2023/05/02 04:28:17;;;;;;;6.78;5.30;;;;;;;13.79;52.68;95298.25;5029959;28;20225;-69
2023/05/02 04:30:42;;;;;;;5.60;5.00;;;;;;;13.92;52.18;95303.88;5023829;28;20174;-68
2023/05/02 04:33:08;;;;;;;6.38;4.60;;;;;;;13.83;52.04;95299.59;5037375;28;20226;-71
2023/05/02 04:35:33;;;;;;;6.40;4.88;;;;;;;13.75;52.19;95299.59;5044267;28;20260;-72
2023/05/02 04:37:58;;;;;;;5.25;4.75;;;;;;;13.91;52.08;95302.22;5025038;28;20218;-69
2023/05/02 04:40:24;;;;;;;5.53;4.82;;;;;;;14.01;51.60;95313.47;5022755;28;20226;-69
2023/05/02 04:42:49;;;;;;;5.28;4.68;;;;;;;14.09;51.19;95304.72;5033169;28;20179;-70
2023/05/02 04:45:15;;;;;;;7.95;4.65;;;;;;;14.18;50.59;95308.16;5026679;28;20281;-71
2023/05/02 04:47:40;;;;;;;6.05;4.47;;;;;;;14.06;50.63;95312.94;5026753;28;20210;-71
2023/05/02 04:50:06;;;;;;;4.93;4.32;;;;;;;13.79;50.90;95303.53;5031145;28;20301;-69
2023/05/02 04:52:32;;;;;;;5.40;4.47;;;;;;;13.76;51.18;95307.31;5043554;28;20240;-70
2023/05/02 04:54:57;;;;;;;4.60;4.20;;;;;;;13.89;50.74;95310.31;5032755;28;20179;-68
2023/05/02 04:57:23;;;;;;;8.07;4.45;;;;;;;13.88;50.29;95307.84;5032238;28;20182;-68
2023/05/02 04:59:48;;;;;;;7.97;4.05;;;;;;;13.72;50.78;95308.66;5029911;28;20226;-68
2023/05/02 05:02:14;;;;;;;6.55;4.20;;;;;;;13.89;50.34;95309.50;5028114;28;20229;-68
2023/05/02 05:04:39;;;;;;;7.00;3.67;;;;;;;13.81;50.51;95304.19;5028740;28;20214;-70
2023/05/02 05:07:04;;;;;;;12.90;4.30;;;;;;;13.78;50.47;95310.63;5028676;28;20182;-68
2023/05/02 05:09:30;;;;;;;4.43;4.03;;;;;;;13.61;50.95;95315.09;5020807;28;20186;-71
2023/05/02 05:11:55;;;;;;;5.40;4.35;;;;;;;13.58;51.05;95310.13;5036193;28;20797;-67
2023/05/02 05:14:21;;;;;;;5.53;4.55;;;;;;;13.89;50.26;95306.84;5040568;28;20221;-67
2023/05/02 05:16:46;;;;;;;6.95;4.50;;;;;;;13.84;50.53;95312.63;5029583;28;20217;-68
2023/05/02 05:19:12;;;;;;;4.97;3.80;;;;;;;13.95;50.00;95318.56;5029809;28;20178;-68
2023/05/02 05:21:37;;;;;;;5.57;4.20;;;;;;;14.03;50.06;95321.22;5028894;28;20178;-68
2023/05/02 05:24:03;;;;;;;7.07;4.53;;;;;;;14.00;49.69;95319.72;5029009;28;20248;-68
2023/05/02 05:26:28;;;;;;;4.10;3.70;;;;;;;13.92;50.00;95319.72;5029284;28;20213;-69
2023/05/02 05:28:54;;;;;;;7.88;4.53;;;;;;;13.98;49.69;95321.72;5026274;28;20218;-70
2023/05/02 05:31:19;;;;;;;4.90;4.45;;;;;;;14.21;48.97;95323.69;5026592;28;20280;-71
2023/05/02 05:33:45;;;;;;;6.60;4.45;;;;;;;14.27;48.86;95333.59;5030756;28;20243;-71
2023/05/02 05:36:16;;;;;;;4.10;3.80;;;;;;;14.22;48.71;95320.91;5022922;28;20221;-71
2023/05/02 05:38:41;;;;;;;5.28;4.28;;;;;;;14.28;48.57;95325.50;5021361;28;20222;-70
2023/05/02 05:41:07;;;;;;;4.47;3.80;;;;;;;14.09;49.02;95331.97;5021348;28;20229;-70
2023/05/02 05:43:33;;;;;;;4.20;3.70;;;;;;;14.22;48.79;95320.06;5017977;28;20230;-71
2023/05/02 05:45:59;;;;;;;5.43;3.67;;;;;;;14.29;48.37;95327.16;5030919;28;20653;-70
2023/05/02 05:48:24;;;;;;;20.02;14.75;;;;;;;14.27;48.41;95334.44;5029721;28;20586;-70
2023/05/02 05:50:51;;;;;;;4.65;3.60;;;;;;;14.30;48.30;95330.63;5031019;28;20236;-70
2023/05/02 05:53:17;;;;;;;4.25;3.85;;;;;;;14.47;48.06;95342.84;5027921;28;20348;-70
2023/05/02 05:55:42;;;;;;;5.10;3.70;;;;;;;14.50;47.52;95336.41;5024680;28;20269;-71
2023/05/02 05:58:08;;;;;;;4.45;3.60;;;;;;;14.68;47.69;95339.69;5030858;28;20217;-70
2023/05/02 06:00:34;;;;;;;5.18;3.60;;;;;;;14.67;47.20;95343.31;5031530;28;20207;-71
2023/05/02 06:02:59;;;;;;;6.07;3.65;;;;;;;14.68;47.22;95344.19;5043267;28;20232;-71
2023/05/02 06:05:25;;;;;;;3.90;3.60;;;;;;;14.56;47.05;95347.16;5032909;28;20217;-70
2023/05/02 06:07:50;;;;;;;4.03;3.63;;;;;;;14.52;47.31;95356.44;5029347;28;20221;-71
2023/05/02 06:10:16;;;;;;;4.75;3.60;;;;;;;14.53;47.06;95350.13;5035461;28;20181;-70
2023/05/02 06:12:41;;;;;;;4.90;4.13;;;;;;;14.51;47.21;95344.19;5029789;28;20212;-70
2023/05/02 06:15:07;;;;;;;3.67;3.38;;;;;;;14.68;46.98;95352.94;5024513;28;20221;-70
2023/05/02 06:17:32;;;;;;;3.92;3.50;;;;;;;14.77;46.17;95351.91;5042983;28;20231;-72
2023/05/02 06:19:58;;;;;;;5.15;3.90;;;;;;;14.71;46.22;95347.31;5027007;28;20229;-70
2023/05/02 06:22:23;;;;;;;4.38;3.95;;;;;;;14.74;46.35;95343.50;5033356;28;20217;-70
2023/05/02 06:24:49;;;;;;;4.00;3.60;;;;;;;14.64;46.54;95340.19;5027113;28;20701;-70
2023/05/02 06:27:15;;;;;;;6.47;4.15;;;;;;;14.58;46.46;95340.88;5020123;28;20213;-71
2023/05/02 06:29:40;;;;;;;5.32;3.25;;;;;;;14.73;46.13;95344.50;5024631;28;20214;-70
2023/05/02 06:32:06;;;;;;;5.15;3.65;;;;;;;14.75;46.13;95345.13;5024833;28;20225;-70
2023/05/02 06:34:32;;;;;;;4.43;3.47;;;;;;;14.89;45.67;95333.84;5027967;28;20252;-70
2023/05/02 06:36:58;;;;;;;5.32;3.38;;;;;;;14.76;45.93;95333.56;5031029;28;20193;-70
2023/05/02 06:39:23;;;;;;;4.70;3.47;;;;;;;14.88;45.83;95337.47;5028230;28;20201;-70
2023/05/02 06:41:49;;;;;;;3.55;3.20;;;;;;;15.07;45.82;95327.50;5030798;28;20222;-70
2023/05/02 06:44:15;;;;;;;4.63;3.60;;;;;;;15.23;45.25;95327.41;5023979;28;20209;-70
2023/05/02 06:46:40;;;;;;;5.35;3.42;;;;;;;15.16;44.95;95334.41;5029715;28;20700;-70
2023/05/02 06:49:06;;;;;;;4.35;3.38;;;;;;;15.10;44.98;95325.34;5031762;28;20281;-71
2023/05/02 06:51:31;;;;;;;3.55;3.00;;;;;;;15.25;44.52;95333.38;5030586;28;20216;-71
2023/05/02 06:53:57;;;;;;;4.85;3.53;;;;;;;15.31;44.40;95326.56;5027235;28;20228;-70
2023/05/02 06:56:26;;;;;;;2.80;2.60;;;;;;;15.43;44.15;95322.53;5028068;28;20213;-70
2023/05/02 06:58:52;;;;;;;3.90;3.13;;;;;;;15.54;43.38;95319.47;5026171;28;20221;-70
2023/05/02 07:01:17;;;;;;;4.75;3.28;;;;;;;15.66;43.01;95325.19;5022406;28;20222;-70
2023/05/02 07:03:43;;;;;;;3.60;3.00;;;;;;;15.52;43.32;95315.34;5029078;28;20268;-70
2023/05/02 07:06:08;;;;;;;5.28;2.90;;;;;;;15.62;42.92;95318.59;5028903;28;20301;-70
2023/05/02 07:08:34;;;;;;;6.15;3.47;;;;;;;15.60;42.44;95313.47;5030226;28;20231;-70
2023/05/02 07:11:01;;;;;;;3.35;2.97;;;;;;;15.73;42.50;95320.88;5035067;28;20218;-71
2023/05/02 07:13:27;;;;;;;3.13;2.83;;;;;;;15.74;41.61;95321.69;5040415;28;20242;-70
2023/05/02 07:15:52;;;;;;;5.22;3.20;;;;;;;15.77;41.63;95324.84;5040798;28;20224;-70
2023/05/02 07:18:18;;;;;;;6.32;2.67;;;;;;;15.82;41.23;95333.09;5036818;28;20217;-70
2023/05/02 07:20:44;;;;;;;5.10;3.00;;;;;;;15.85;40.74;95323.94;5026888;28;20222;-71
2023/05/02 07:23:09;;;;;;;6.28;3.05;;;;;;;15.83;41.07;95336.56;5030867;28;20248;-68
2023/05/02 07:25:35;;;;;;;2.95;2.63;;;;;;;15.88;40.55;95334.22;5027915;28;20300;-70
2023/05/02 07:28:01;;;;;;;3.58;3.00;;;;;;;15.83;40.84;95324.13;5029000;28;20189;-68
2023/05/02 07:30:26;;;;;;;6.30;3.28;;;;;;;15.81;40.69;95322.66;5036560;28;20189;-68
2023/05/02 07:32:51;;;;;;;6.60;3.20;;;;;;;15.84;41.23;95328.41;5023032;28;20287;-70
2023/05/02 07:35:17;;;;;;;3.20;2.47;;;;;;;15.88;40.77;95319.13;5020010;28;20213;-69
2023/05/02 07:37:42;;;;;;;5.28;3.00;;;;;;;16.04;40.54;95320.81;5029090;28;20222;-69
2023/05/02 07:40:08;;;;;;;3.78;2.88;;;;;;;16.11;40.68;95318.28;5041308;28;20182;-69
2023/05/02 07:42:35;;;;;;;4.13;2.53;;;;;;;16.11;40.10;95320.94;5034156;28;20182;-70
2023/05/02 07:45:00;;;;;;;4.07;2.67;;;;;;;16.20;40.11;95326.97;5025742;28;20217;-70
2023/05/02 07:47:26;;;;;;;3.95;2.60;;;;;;;16.16;40.30;95325.69;5033655;28;20297;-69
2023/05/02 07:49:53;;;;;;;3.33;2.85;;;;;;;16.28;40.31;95317.16;5026857;28;20214;-69
2023/05/02 07:52:19;;;;;;;5.57;2.90;;;;;;;16.40;40.34;95332.63;5025322;28;20237;-69
2023/05/02 07:54:44;;;;;;;4.10;2.72;;;;;;;16.53;39.35;95325.69;5029754;28;20190;-69
2023/05/02 07:57:11;;;;;;;5.20;2.50;;;;;;;16.55;39.23;95320.22;5025796;28;20214;-69
2023/05/02 07:59:37;;;;;;;3.33;2.85;;;;;;;16.63;39.37;95314.00;5032776;28;20229;-69
2023/05/02 08:02:03;;;;;;;5.53;2.88;;;;;;;16.64;39.41;95324.41;5032418;28;20328;-68
2023/05/02 08:04:29;;;;;;;5.82;2.92;;;;;;;16.69;39.22;95322.06;5031093;28;20254;-71
2023/05/02 08:06:54;;;;;;;3.50;2.38;;;;;;;16.81;38.83;95324.28;5025509;28;20247;-70
2023/05/02 08:09:20;;;;;;;3.75;2.45;;;;;;;16.91;38.60;95317.69;5034829;28;20271;-70
2023/05/02 08:11:45;;;;;;;5.40;2.92;;;;;;;16.94;38.72;95321.81;5028433;28;20225;-70
2023/05/02 08:14:11;;;;;;;3.53;2.30;;;;;;;17.04;38.42;95327.66;5032521;28;20750;-70
2023/05/02 08:16:36;;;;;;;2.83;2.50;;;;;;;17.08;38.11;95318.34;5029808;28;20309;-70
2023/05/02 08:19:02;;;;;;;4.00;2.53;;;;;;;17.24;37.99;95313.81;5026091;28;20657;-70
2023/05/02 08:21:28;;;;;;;3.10;2.70;;;;;;;17.37;38.07;95319.28;5029311;28;20185;-71
2023/05/02 08:23:57;;;;;;;6.20;3.10;;;;;;;17.46;37.44;95322.69;5033389;28;20217;-69
2023/05/02 08:26:23;;;;;;;7.13;2.78;;;;;;;17.56;36.94;95320.53;5025266;28;20221;-69
2023/05/02 08:28:50;;;;;;;3.20;2.40;;;;;;;17.65;36.75;95314.09;5032899;28;20304;-69
2023/05/02 08:31:15;;;;;;;3.38;2.58;;;;;;;17.61;36.61;95311.00;5026951;28;20220;-69
2023/05/02 08:33:41;;;;;;;3.67;2.33;;;;;;;17.76;36.53;95320.75;5033800;28;20186;-71
2023/05/02 08:36:17;;;;;;;2.70;2.45;;;;;;;17.83;36.43;95313.72;5031534;28;20256;-70
2023/05/02 08:38:43;;;;;;;5.70;2.00;;;;;;;18.04;35.60;95319.03;5022515;28;20709;-70
2023/05/02 08:41:17;;;;;;;2.65;1.88;;;;;;;18.08;35.60;95317.63;5028603;28;20241;-70
2023/05/02 08:43:44;;;;;;;4.93;2.55;;;;;;;18.27;35.48;95307.34;5033761;28;20214;-70
2023/05/02 08:46:11;;;;;;;6.80;2.65;;;;;;;18.43;35.07;95309.72;5022626;28;20218;-68
2023/05/02 08:48:39;;;;;;;2.55;2.00;;;;;;;18.44;34.92;95311.38;5023362;28;20302;-69
2023/05/02 08:51:08;;;;;;;4.95;2.53;;;;;;;18.60;35.49;95318.22;5028447;28;20268;-71
2023/05/02 08:53:35;;;;;;;5.20;2.30;;;;;;;18.67;34.65;95310.31;5026632;28;20218;-71
2023/05/02 08:56:01;;;;;;;4.25;2.50;;;;;;;18.83;33.88;95303.88;5043372;28;20225;-70
2023/05/02 08:58:26;;;;;;;3.95;2.40;;;;;;;18.91;33.96;95296.56;5027308;28;20226;-68
2023/05/02 09:00:54;;;;;;;3.60;2.20;;;;;;;18.98;33.32;95298.41;5028209;28;20422;-71
2023/05/02 09:03:21;;;;;;;7.15;3.30;;;;;;;19.11;33.41;95303.81;5025990;28;20254;-71
2023/05/02 09:05:52;;;;;;;4.80;2.40;;;;;;;19.23;33.21;95298.75;5031627;28;20227;-69
2023/05/02 09:08:24;;;;;;;7.88;3.60;;;;;;;19.37;32.84;95284.44;5029687;28;20600;-70
2023/05/02 09:10:53;;;;;;;10.15;4.47;;;;;;;19.55;32.34;95299.91;5026783;28;20218;-71
2023/05/02 09:13:36;;;;;;;5.07;2.50;;;;;;;19.58;32.60;95291.50;5036250;28;20234;-71
2023/05/02 09:16:09;;;;;;;4.47;2.15;;;;;;;19.79;32.24;95299.38;5030024;28;20185;-69
2023/05/02 09:18:39;;;;;;;5.43;2.22;;;;;;;19.90;31.50;95286.47;5026357;28;20182;-70
2023/05/02 09:21:16;;;;;;;6.07;2.40;;;;;;;19.95;30.95;95292.84;5032901;28;20233;-68
2023/05/02 09:23:44;;;;;;;5.28;2.45;;;;;;;20.01;30.76;95286.69;5024846;28;20218;-70
2023/05/02 09:26:14;;;;;;;5.07;2.53;;;;;;;20.17;30.94;95285.47;5047802;28;20280;-70
2023/05/02 09:28:48;;;;;;;3.75;2.70;;;;;;;20.23;31.34;95284.66;5022422;28;20221;-71
2023/05/02 09:31:16;;;;;;;2.83;2.08;;;;;;;20.32;30.19;95293.28;5045771;28;20182;-71
2023/05/02 09:33:42;;;;;;;6.28;2.13;;;;;;;20.43;30.30;95283.84;5045979;28;20173;-71
2023/05/02 09:36:10;;;;;;;4.07;2.20;;;;;;;20.49;29.78;95283.00;5022055;28;20715;-72
2023/05/02 09:38:37;;;;;;;2.67;1.83;;;;;;;20.52;29.67;95277.25;5021818;28;20230;-71
2023/05/02 09:41:03;;;;;;;2.90;1.90;;;;;;;20.46;30.20;95273.56;5023133;28;20217;-71
2023/05/02 09:43:30;;;;;;;4.07;2.67;;;;;;;20.53;29.91;95275.38;5028055;28;20227;-71
2023/05/02 09:46:03;;;;;;;2.45;2.15;;;;;;;20.83;29.15;95276.63;5029382;28;20191;-72
2023/05/02 09:48:30;;;;;;;2.33;2.13;;;;;;;20.65;29.28;95274.59;5027157;28;20293;-71
2023/05/02 09:50:56;;;;;;;3.17;2.05;;;;;;;20.58;29.58;95272.94;5024577;28;20248;-71
2023/05/02 09:53:27;;;;;;;3.60;1.88;;;;;;;20.69;29.80;95262.47;5045716;28;20234;-71
2023/05/02 09:56:03;;;;;;;3.42;2.03;;;;;;;20.80;29.28;95252.16;5022099;28;20279;-72
2023/05/02 09:58:29;;;;;;;2.60;2.00;;;;;;;20.93;28.43;95258.28;5032988;28;20251;-71
2023/05/02 10:00:56;;;;;;;3.38;2.08;;;;;;;21.08;28.61;95258.03;5031511;28;20182;-72
2023/05/02 10:03:23;;;;;;;2.65;2.30;;;;;;;21.24;27.85;95256.72;5025070;28;20217;-71
2023/05/02 10:05:49;;;;;;;3.40;2.00;;;;;;;21.22;27.73;95249.94;5023100;28;20221;-72
2023/05/02 10:08:18;;;;;;;1.90;1.80;;;;;;;21.42;27.65;95256.06;5026109;28;20217;-71
2023/05/02 10:10:53;;;;;;;3.08;1.88;;;;;;;21.51;27.54;95249.44;5026315;28;20218;-72
2023/05/02 10:13:21;;;;;;;2.60;2.03;;;;;;;21.63;27.81;95252.25;5038834;28;20336;-71
2023/05/02 10:15:59;;;;;;;4.32;1.92;;;;;;;21.70;26.71;95245.00;5018431;28;20182;-71
2023/05/02 10:18:55;;;;;;;4.00;2.20;;;;;;;21.82;27.15;95238.97;5024760;28;20225;-72
2023/05/02 10:21:28;;;;;;;4.95;2.72;;;;;;;21.90;27.07;95247.56;4990550;28;20265;-71
2023/05/02 10:23:54;;;;;;;4.82;2.22;;;;;;;22.01;26.24;95246.84;4994439;28;20246;-71
2023/05/02 10:26:22;;;;;;;4.20;2.08;;;;;;;22.06;26.18;95245.41;4997727;28;20223;-72
2023/05/02 10:28:49;;;;;;;5.20;2.35;;;;;;;22.02;26.34;95235.13;4983090;28;20227;-71
2023/05/02 10:31:16;;;;;;;7.45;2.92;;;;;;;22.13;26.11;95236.28;4990466;28;20196;-72
2023/05/02 10:33:42;;;;;;;6.43;2.50;;;;;;;22.30;26.17;95227.72;4972587;28;20230;-72
2023/05/02 10:36:13;;;;;;;4.65;2.15;;;;;;;22.30;25.91;95220.50;4974814;28;22331;-72
2023/05/02 10:38:38;;;;;;;9.02;2.70;;;;;;;22.42;25.75;95231.31;4973387;28;20223;-72
2023/05/02 10:41:11;;;;;;;6.70;2.78;;;;;;;22.34;25.72;95232.41;4989112;28;20230;-71
2023/05/02 10:43:37;;;;;;;7.30;2.30;;;;;;;22.28;24.88;95229.78;4983346;28;20227;-71
2023/05/02 10:46:30;;;;;;;5.78;1.85;;;;;;;22.48;24.86;95234.97;4977751;28;20195;-72
2023/05/02 10:49:07;;;;;;;3.45;2.17;;;;;;;22.30;24.55;95220.50;4972362;28;20230;-71
2023/05/02 10:51:35;;;;;;;3.25;2.25;;;;;;;22.45;24.66;95215.63;4971622;28;20221;-70
2023/05/02 10:54:19;;;;;;;2.33;2.13;;;;;;;22.64;24.47;95216.47;4977640;28;20235;-68
2023/05/02 10:57:05;;;;;;;5.95;2.35;;;;;;;22.74;24.36;95209.75;4980332;28;20356;-71
2023/05/02 10:59:35;;;;;;;4.35;2.25;;;;;;;22.82;24.56;95212.97;5031641;28;20689;-69
2023/05/02 11:02:01;;;;;;;7.28;1.98;;;;;;;23.05;23.93;95222.25;5037269;28;20264;-69
2023/05/02 11:05:02;;;;;;;3.13;1.90;;;;;;;22.77;24.43;95218.16;5028377;28;20218;-69
2023/05/02 11:07:29;;;;;;;1.77;1.67;;;;;;;22.72;24.61;95207.31;5025696;28;20288;-70
2023/05/02 11:10:17;;;;;;;2.97;2.03;;;;;;;22.77;24.69;95210.13;5037030;28;20185;-70
2023/05/02 11:12:47;;;;;;;4.47;1.90;;;;;;;22.78;24.44;95211.78;5030842;28;20229;-72
2023/05/02 11:15:27;;;;;;;3.25;1.83;;;;;;;22.80;24.38;95209.69;5020285;28;20218;-72
2023/05/02 11:18:10;;;;;;;3.63;2.17;;;;;;;22.87;24.79;95202.38;5040601;28;20264;-72
2023/05/02 11:20:38;;;;;;;2.85;2.22;;;;;;;22.98;24.73;95210.75;5026736;28;20240;-72
2023/05/02 11:23:13;;;;;;;1.85;1.75;;;;;;;23.04;23.90;95194.59;5040839;28;20221;-71
2023/05/02 11:25:42;;;;;;;4.55;2.08;;;;;;;23.15;24.40;95200.22;5022915;28;20295;-71
2023/05/02 11:28:44;;;;;;;3.33;2.45;;;;;;;23.36;24.42;95196.25;5020896;28;20269;-71
2023/05/02 11:31:28;;;;;;;1.83;1.70;;;;;;;23.50;24.08;95198.53;5044134;28;20174;-69
2023/05/02 11:34:01;;;;;;;4.50;1.80;;;;;;;23.31;23.61;95196.94;5045721;28;20197;-69
2023/05/02 11:36:32;;;;;;;2.35;1.90;;;;;;;23.40;24.02;95186.72;5051579;28;20226;-71
2023/05/02 11:39:02;;;;;;;4.07;2.05;;;;;;;23.36;24.40;95186.31;5027105;28;20279;-71
2023/05/02 11:41:38;;;;;;;3.92;1.73;;;;;;;23.48;24.34;95181.84;5031953;28;20248;-69